Maersk Tide — 9VEC — position and weather

sailwx.info

Track history (hours):
 
Tides and Currents Weather Stations Pressure Air Temp Water Temp Dewpoint Dewpoint Depression Visibility Wind Speed Wind Dir Waves Ship Positions

Maersk Tide

Last reported at 2018-Feb-19 17:43 UTC. Time now 2018-Feb-21 03:32 UTC.
Position N 11°15' W 074°14'.

Type: Cargo ship. MMSI: 564185000.

Date/timePositionNaut miles runAvg speedWind from/ knotsBaromVisibWave heightAir tempDewpointWater temp
2018-Feb-19 17:43N 11°15' W 074°14'1 5.5
2018-Feb-19 17:30N 11°15' W 074°13'0 0.6
2018-Feb-19 16:55N 11°15' W 074°13'0 0.0
2018-Feb-19 16:19N 11°15' W 074°13'0 0.0
2018-Feb-19 15:58N 11°15' W 074°13'0 0.0
2018-Feb-19 15:28N 11°15' W 074°13'0 0.0
2018-Feb-19 14:58N 11°15' W 074°13'0 0.0
2018-Feb-19 14:19N 11°15' W 074°13'0 0.0
2018-Feb-19 13:58N 11°15' W 074°13'0 0.0
2018-Feb-19 13:25N 11°15' W 074°13'0 0.0
2018-Feb-19 12:55N 11°15' W 074°13'0 0.0
2018-Feb-19 12:07N 11°15' W 074°13'  
2018-Feb-11 01:39N 19°21' W 095°32'211.2
2018-Feb-11 01:31N 19°20' W 095°33'611.4
2018-Feb-11 00:57N 19°16' W 095°39'511.3
2018-Feb-11 00:30N 19°13' W 095°43'711.2
2018-Feb-10 23:52N 19°12' W 095°50'411.2
2018-Feb-10 23:31N 19°12' W 095°54'611.3
2018-Feb-10 23:00N 19°11' W 096°01'4 7.7
2018-Feb-10 22:30N 19°12' W 096°05'3 6.7
2018-Feb-10 22:00N 19°12' W 096°08'0 0.0
2018-Feb-10 20:47N 19°12' W 096°08'0 0.0
2018-Feb-10 20:26N 19°12' W 096°08'0 0.0
2018-Feb-10 16:26N 19°12' W 096°08'0 0.0
2018-Feb-10 15:50N 19°12' W 096°08'0 0.0
2018-Feb-10 14:41N 19°12' W 096°08'0 0.0
2018-Feb-10 14:17N 19°12' W 096°08'0 0.0
2018-Feb-10 13:56N 19°12' W 096°08'0 0.0
2018-Feb-10 13:26N 19°12' W 096°08'0 0.0
2018-Feb-10 12:44N 19°12' W 096°08'0 0.0
2018-Feb-10 12:26N 19°12' W 096°08'0 0.0
2018-Feb-10 12:00N 19°12' W 096°08'1 2.2
2018-Feb-10 11:29N 19°12' W 096°07'4 8.1
2018-Feb-10 10:59N 19°12' W 096°03'5 7.3
2018-Feb-10 10:21N 19°16' W 096°00'410.7
2018-Feb-10 09:59N 19°19' W 096°00'510.8
2018-Feb-10 09:30N 19°25' W 096°01'  
Track history (hours):
 
Tides and Currents Weather Stations Pressure Air Temp Water Temp Dewpoint Dewpoint Depression Visibility Wind Speed Wind Dir Waves Ship Positions

Maersk Tide

Last reported at 2018-Feb-19 17:43 UTC. Time now 2018-Feb-21 03:32 UTC.
Position N 11°15' W 074°14'.

Type: Cargo ship. MMSI: 564185000.

Date/timePositionNaut miles runAvg speedWind from/ knotsBaromVisibWave heightAir tempDewpointWater temp
2018-Feb-19 17:43N 11°15' W 074°14'1 5.5
2018-Feb-19 17:30N 11°15' W 074°13'0 0.6
2018-Feb-19 16:55N 11°15' W 074°13'0 0.0
2018-Feb-19 16:19N 11°15' W 074°13'0 0.0
2018-Feb-19 15:58N 11°15' W 074°13'0 0.0
2018-Feb-19 15:28N 11°15' W 074°13'0 0.0
2018-Feb-19 14:58N 11°15' W 074°13'0 0.0
2018-Feb-19 14:19N 11°15' W 074°13'0 0.0
2018-Feb-19 13:58N 11°15' W 074°13'0 0.0
2018-Feb-19 13:25N 11°15' W 074°13'0 0.0
2018-Feb-19 12:55N 11°15' W 074°13'0 0.0
2018-Feb-19 12:07N 11°15' W 074°13'  
2018-Feb-11 01:39N 19°21' W 095°32'211.2
2018-Feb-11 01:31N 19°20' W 095°33'611.4
2018-Feb-11 00:57N 19°16' W 095°39'511.3
2018-Feb-11 00:30N 19°13' W 095°43'711.2
2018-Feb-10 23:52N 19°12' W 095°50'411.2
2018-Feb-10 23:31N 19°12' W 095°54'611.3
2018-Feb-10 23:00N 19°11' W 096°01'4 7.7
2018-Feb-10 22:30N 19°12' W 096°05'3 6.7
2018-Feb-10 22:00N 19°12' W 096°08'0 0.0
2018-Feb-10 20:47N 19°12' W 096°08'0 0.0
2018-Feb-10 20:26N 19°12' W 096°08'0 0.0
2018-Feb-10 16:26N 19°12' W 096°08'0 0.0
2018-Feb-10 15:50N 19°12' W 096°08'0 0.0
2018-Feb-10 14:41N 19°12' W 096°08'0 0.0
2018-Feb-10 14:17N 19°12' W 096°08'0 0.0
2018-Feb-10 13:56N 19°12' W 096°08'0 0.0
2018-Feb-10 13:26N 19°12' W 096°08'0 0.0
2018-Feb-10 12:44N 19°12' W 096°08'0 0.0
2018-Feb-10 12:26N 19°12' W 096°08'0 0.0
2018-Feb-10 12:00N 19°12' W 096°08'1 2.2
2018-Feb-10 11:29N 19°12' W 096°07'4 8.1
2018-Feb-10 10:59N 19°12' W 096°03'5 7.3
2018-Feb-10 10:21N 19°16' W 096°00'410.7
2018-Feb-10 09:59N 19°19' W 096°00'510.8
2018-Feb-10 09:30N 19°25' W 096°01'  

Dump ship's entire track history